Weather History for Logansport, IN

Change the Weather History Date:

Tuesday, April 2, 2013

  Actual Average Record
Temperature  
Mean Temperature 32 °F -  
Max Temperature 44 °F 51 °F 55 °F (2014)
Min Temperature 21 °F 29 °F 21 °F (2013)
Degree Days  
Heating Degree Days 32    
Moisture  
Dew Point 15 °F    
Average Humidity 52    
Maximum Humidity 86    
Minimum Humidity 27    
Precipitation  
Precipitation 0.00 in - - ()
Sea Level Pressure  
Sea Level Pressure 30.23 in    
Wind  
Wind Speed 5 mph (WNW)    
Max Wind Speed 16 mph    
Max Gust Speed 25 mph    
Visibility 10 miles    
Events      
Averages and records for this station are not official NWS values.
T = Trace of Precipitation, MM = Missing Value Source: NWS Daily Summary

Daily Weather History Graph

Daily Weather History Graph

Search for Another Location

Airport:

Trip Planner

Search our weather history database for the weather conditions in past years. The results will help you decide how hot, cold, wet, or windy it might be!

Date:

Astronomy

Apr. 02, 2013 Rise Set
Actual Time 7:26 AM EDT 8:11 PM EDT
Civil Twilight 6:59 AM EDT 8:39 PM EDT
Nautical Twilight 6:26 AM EDT 9:12 PM EDT
Astronomical Twilight 5:52 AM EDT 9:46 PM EDT
Moon 2:17 AM EDT (4/2) 12:16 PM EDT (4/2)
Length of Visible Light 13h 39m
Length of Day
12h 44m
Waning Gibbous, 56% of the Moon is Illuminated
Apr 2
Waning Gibbous
Apr 3
Last Quarter
Apr 10
New
Apr 18
First Quarter
Apr 25
Full

Hourly Weather History & Observations

Time (EDT) Temp. Windchill Dew Point Humidity Pressure Visibility Wind Dir Wind Speed Gust Speed Precip Events Conditions
12:15 AM 26.6 °F - 21.2 °F 80% 30.16 in 10.0 mi Calm Calm - N/A   Clear
12:35 AM 26.6 °F - 21.2 °F 80% 30.16 in 10.0 mi Calm Calm - N/A   Clear
12:55 AM 28.4 °F 23.3 °F 21.2 °F 74% 30.16 in 10.0 mi WSW 4.6 mph - N/A   Clear
1:15 AM 26.6 °F 20.0 °F 21.2 °F 80% 30.16 in 10.0 mi West 5.8 mph - N/A   Clear
1:35 AM 26.6 °F 21.2 °F 19.4 °F 74% 30.16 in 10.0 mi West 4.6 mph - N/A   Clear
1:55 AM 26.6 °F 20.0 °F 17.6 °F 69% 30.16 in 10.0 mi West 5.8 mph - N/A   Clear
2:15 AM 24.8 °F 16.9 °F 19.4 °F 80% 30.16 in 10.0 mi West 6.9 mph - N/A   Clear
2:35 AM 28.4 °F 22.2 °F 19.4 °F 69% 30.17 in 10.0 mi WNW 5.8 mph - N/A   Clear
2:55 AM 30.2 °F 24.3 °F 19.4 °F 64% 30.17 in 10.0 mi WNW 5.8 mph - N/A   Clear
3:15 AM 28.4 °F 22.2 °F 17.6 °F 64% 30.17 in 10.0 mi WNW 5.8 mph - N/A   Clear
3:35 AM 28.4 °F 22.2 °F 19.4 °F 69% 30.17 in 10.0 mi NW 5.8 mph - N/A   Clear
3:55 AM 28.4 °F 24.6 °F 17.6 °F 64% 30.17 in 10.0 mi NW 3.5 mph - N/A   Clear
4:15 AM 26.6 °F 22.6 °F 17.6 °F 69% 30.17 in 10.0 mi West 3.5 mph - N/A   Clear
4:35 AM 24.8 °F 20.5 °F 17.6 °F 74% 30.17 in 10.0 mi WNW 3.5 mph - N/A   Clear
4:55 AM 24.8 °F 19.1 °F 17.6 °F 74% 30.18 in 10.0 mi West 4.6 mph - N/A   Clear
5:15 AM 24.8 °F 20.5 °F 17.6 °F 74% 30.19 in 10.0 mi WNW 3.5 mph - N/A   Clear
5:35 AM 23.0 °F 17.0 °F 17.6 °F 80% 30.20 in 10.0 mi WNW 4.6 mph - N/A   Clear
5:55 AM 23.0 °F 18.4 °F 17.6 °F 80% 30.20 in 10.0 mi WNW 3.5 mph - N/A   Clear
6:15 AM 21.2 °F 16.4 °F 17.6 °F 86% 30.21 in 10.0 mi West 3.5 mph - N/A   Clear
6:35 AM 21.2 °F 14.9 °F 17.6 °F 86% 30.22 in 10.0 mi West 4.6 mph - N/A   Clear
6:55 AM 23.0 °F 18.4 °F 17.6 °F 80% 30.22 in 10.0 mi WNW 3.5 mph - N/A   Clear
7:15 AM 26.6 °F 22.6 °F 17.6 °F 69% 30.22 in 10.0 mi WNW 3.5 mph - N/A   Clear
7:35 AM 24.8 °F 20.5 °F 17.6 °F 74% 30.23 in 10.0 mi West 3.5 mph - N/A   Clear
7:55 AM 21.2 °F 16.4 °F 17.6 °F 86% 30.24 in 10.0 mi West 3.5 mph - N/A   Clear
8:15 AM 24.8 °F 17.9 °F 19.4 °F 80% 30.25 in 10.0 mi West 5.8 mph - N/A   Clear
8:35 AM 28.4 °F 23.3 °F 19.4 °F 69% 30.25 in 10.0 mi West 4.6 mph - N/A   Clear
8:55 AM 28.4 °F 23.3 °F 19.4 °F 69% 30.26 in 10.0 mi WNW 4.6 mph - N/A   Clear
9:15 AM 30.2 °F 24.3 °F 19.4 °F 64% 30.26 in 10.0 mi WNW 5.8 mph - N/A   Clear
9:35 AM 32.0 °F 26.4 °F 19.4 °F 60% 30.27 in 10.0 mi WNW 5.8 mph - N/A   Clear
9:55 AM 32.0 °F 26.4 °F 19.4 °F 60% 30.27 in 10.0 mi WNW 5.8 mph - N/A   Clear
10:15 AM 32.0 °F 26.4 °F 19.4 °F 60% 30.28 in 10.0 mi WNW 5.8 mph - N/A   Clear
10:35 AM 32.0 °F 27.5 °F 17.6 °F 55% 30.28 in 10.0 mi WNW 4.6 mph - N/A   Scattered Clouds
10:55 AM 33.8 °F 28.6 °F 15.8 °F 48% 30.28 in 10.0 mi NW 5.8 mph - N/A   Clear
11:15 AM 33.8 °F 29.6 °F 15.8 °F 48% 30.28 in 10.0 mi WNW 4.6 mph - N/A   Clear
11:35 AM 35.6 °F 31.7 °F 12.2 °F 38% 30.28 in 10.0 mi WNW 4.6 mph 16.1 mph N/A   Clear
11:55 AM 35.6 °F 28.6 °F 14.0 °F 41% 30.28 in 10.0 mi NW 9.2 mph - N/A   Clear
12:15 PM 35.6 °F 30.7 °F 14.0 °F 41% 30.28 in 10.0 mi West 5.8 mph - N/A   Scattered Clouds
12:35 PM 37.4 °F 32.8 °F 14.0 °F 38% 30.28 in 10.0 mi West 5.8 mph - N/A   Scattered Clouds
12:55 PM 37.4 °F 32.8 °F 12.2 °F 36% 30.27 in 10.0 mi West 5.8 mph - N/A   Clear
1:15 PM 37.4 °F 32.1 °F 14.0 °F 38% 30.26 in 10.0 mi West 6.9 mph 20.7 mph N/A   Clear
1:35 PM 39.2 °F 33.0 °F 12.2 °F 33% 30.26 in 10.0 mi West 9.2 mph 16.1 mph N/A   Clear
1:55 PM 39.2 °F 33.6 °F 12.2 °F 33% 30.25 in 10.0 mi WNW 8.1 mph 18.4 mph N/A   Clear
2:15 PM 41.0 °F 37.1 °F 14.0 °F 33% 30.25 in 10.0 mi NW 5.8 mph 10.4 mph N/A   Clear
2:35 PM 41.0 °F 38.0 °F 12.2 °F 31% 30.24 in 10.0 mi West 4.6 mph 17.3 mph N/A   Clear
2:55 PM 41.0 °F 35.2 °F 12.2 °F 31% 30.23 in 10.0 mi WNW 9.2 mph - N/A   Clear
3:15 PM 42.8 °F 37.0 °F 14.0 °F 31% 30.22 in 10.0 mi West 10.4 mph 19.6 mph N/A   Scattered Clouds
3:35 PM 42.8 °F 35.1 °F 12.2 °F 29% 30.21 in 10.0 mi West 16.1 mph 20.7 mph N/A   Clear
3:55 PM 42.8 °F 36.6 °F 14.0 °F 31% 30.21 in 10.0 mi WNW 11.5 mph 18.4 mph N/A   Clear
4:15 PM 42.8 °F 37.0 °F 12.2 °F 29% 30.21 in 10.0 mi NW 10.4 mph 23.0 mph N/A   Scattered Clouds
4:35 PM 44.6 °F 37.8 °F 12.2 °F 27% 30.20 in 10.0 mi WNW 15.0 mph 25.3 mph N/A   Scattered Clouds
4:55 PM 42.8 °F 36.2 °F 10.4 °F 27% 30.20 in 10.0 mi West 12.7 mph 20.7 mph N/A   Scattered Clouds
5:15 PM 42.8 °F 36.6 °F 10.4 °F 27% 30.20 in 10.0 mi WNW 11.5 mph 19.6 mph N/A   Scattered Clouds
5:35 PM 42.8 °F 35.4 °F 12.2 °F 29% 30.20 in 10.0 mi West 15.0 mph 20.7 mph N/A   Scattered Clouds
5:55 PM 44.6 °F 38.4 °F 12.2 °F 27% 30.20 in 10.0 mi West 12.7 mph 21.9 mph N/A   Scattered Clouds
6:15 PM 42.8 °F 37.5 °F 10.4 °F 27% 30.21 in 10.0 mi WNW 9.2 mph - N/A   Scattered Clouds
6:35 PM 41.0 °F 34.7 °F 12.2 °F 31% 30.21 in 10.0 mi WNW 10.4 mph 19.6 mph N/A   Scattered Clouds
6:55 PM 42.8 °F 37.0 °F 10.4 °F 27% 30.21 in 10.0 mi NW 10.4 mph 17.3 mph N/A   Scattered Clouds
7:15 PM 41.0 °F 34.7 °F 10.4 °F 29% 30.22 in 10.0 mi WNW 10.4 mph - N/A   Scattered Clouds
7:35 PM 41.0 °F 35.2 °F 10.4 °F 29% 30.22 in 10.0 mi WNW 9.2 mph - N/A   Clear
7:55 PM 39.2 °F 35.0 °F 10.4 °F 31% 30.22 in 10.0 mi NW 5.8 mph - N/A   Clear
8:15 PM 37.4 °F 31.4 °F 10.4 °F 33% 30.23 in 10.0 mi NW 8.1 mph - N/A   Clear
8:35 PM 37.4 °F 32.8 °F 10.4 °F 33% 30.23 in 10.0 mi NW 5.8 mph - N/A   Clear
8:55 PM 35.6 °F 28.0 °F 12.2 °F 38% 30.24 in 10.0 mi NNW 10.4 mph - N/A   Clear
9:15 PM 33.8 °F 29.6 °F 14.0 °F 44% 30.25 in 10.0 mi North 4.6 mph - N/A   Clear
9:35 PM 33.8 °F 28.6 °F 14.0 °F 44% 30.26 in 10.0 mi North 5.8 mph - N/A   Clear
9:55 PM 32.0 °F 27.5 °F 17.6 °F 55% 30.27 in 10.0 mi North 4.6 mph - N/A   Clear
10:15 PM 32.0 °F 28.7 °F 12.2 °F 44% 30.28 in 10.0 mi North 3.5 mph - N/A   Clear
10:35 PM 32.0 °F 28.7 °F 14.0 °F 48% 30.28 in 10.0 mi North 3.5 mph - N/A   Clear
10:55 PM 32.0 °F 27.5 °F 14.0 °F 48% 30.29 in 10.0 mi North 4.6 mph - N/A   Clear
11:15 PM 32.0 °F 28.7 °F 12.2 °F 44% 30.29 in 10.0 mi NNE 3.5 mph - N/A   Clear
11:35 PM 32.0 °F 28.7 °F 12.2 °F 44% 30.29 in 10.0 mi NNE 3.5 mph - N/A   Clear
11:55 PM 32.0 °F - 12.2 °F 44% 30.29 in 10.0 mi Calm Calm - N/A   Clear